Time;durP1;ratioP1;P1;durP2;ratioP2;P2;SDS_P1;SDS_P2;PMS_P1;PMS_P2;Temp;Humidity;BMP_temperature;BMP_pressure;BME280_temperature;BME280_humidity;BME280_pressure;Samples;Min_cycle;Max_cycle;Signal;HPM_P1;HPM_P2
2022/10/28 00:01:23;;;;;;;0.20;0.20;;;;;;;;;;5035155;28;20025;-73
2022/10/28 00:03:53;;;;;;;0.17;0.17;;;;;;;;;;5033932;28;20037;-73
2022/10/28 00:06:18;;;;;;;;;;;;;;;;;;5035478;28;20029;-73
2022/10/28 00:08:43;;;;;;;0.10;0.10;;;;;;;;;;5035090;28;19924;-73
2022/10/28 00:11:11;;;;;;;0.10;0.10;;;;;;;;;;5035155;28;20108;-73
2022/10/28 00:13:37;;;;;;;0.95;0.95;;;;;;;;;;5034925;28;20064;-73
2022/10/28 00:16:03;;;;;;;0.20;0.20;;;;;;;;;;5034018;28;20437;-73
2022/10/28 00:18:28;;;;;;;0.10;0.10;;;;;;;;;;5033694;28;20033;-73
2022/10/28 00:20:58;;;;;;;0.10;0.10;;;;;;;;;;5034714;28;20044;-73
2022/10/28 00:23:24;;;;;;;0.20;0.20;;;;;;;;;;5033512;28;20461;-73
2022/10/28 00:25:49;;;;;;;0.40;0.40;;;;;;;;;;5034637;28;20035;-73
2022/10/28 00:28:14;;;;;;;0.10;0.10;;;;;;;;;;5034634;28;20120;-72
2022/10/28 00:30:40;;;;;;;15.07;13.93;;;;;;;;;;5034547;28;20037;-73
2022/10/28 00:33:05;;;;;;;0.10;0.10;;;;;;;;;;5034571;28;20109;-72
2022/10/28 00:35:31;;;;;;;0.10;0.10;;;;;;;;;;5034549;28;20025;-73
2022/10/28 00:37:56;;;;;;;9.10;8.48;;;;;;;;;;5034605;28;20450;-73
2022/10/28 00:40:21;;;;;;;0.20;0.20;;;;;;;;;;5034363;28;20444;-73
2022/10/28 00:42:47;;;;;;;0.10;0.10;;;;;;;;;;5033030;28;20501;-72
2022/10/28 00:45:12;;;;;;;1.00;0.57;;;;;;;;;;5016492;28;20504;-72
2022/10/28 00:47:50;;;;;;;0.10;0.10;;;;;;;;;;5032944;28;20029;-72
2022/10/28 00:50:31;;;;;;;0.10;0.10;;;;;;;;;;5034447;28;20041;-72
2022/10/28 00:53:01;;;;;;;0.10;0.10;;;;;;;;;;5034168;28;20025;-73
2022/10/28 00:55:28;;;;;;;0.10;0.10;;;;;;;;;;5033071;28;20389;-73
2022/10/28 00:57:55;;;;;;;3.20;3.03;;;;;;;;;;5034033;28;20473;-74
2022/10/28 01:00:21;;;;;;;0.80;0.80;;;;;;;;;;5034249;28;20018;-74
2022/10/28 01:02:47;;;;;;;0.52;0.52;;;;;;;;;;5034030;28;20473;-73
2022/10/28 01:05:14;;;;;;;0.20;0.20;;;;;;;;;;5033950;28;20036;-73
2022/10/28 01:07:39;;;;;;;0.25;0.25;;;;;;;;;;5033808;28;20045;-72
2022/10/28 01:10:05;;;;;;;0.10;0.10;;;;;;;;;;5041934;28;20033;-72
2022/10/28 01:12:47;;;;;;;4.85;3.28;;;;;;;;;;5025896;28;20105;-73
2022/10/28 01:15:27;;;;;;;0.10;0.10;;;;;;;;;;5040156;28;20097;-72
2022/10/28 01:18:12;;;;;;;0.10;0.10;;;;;;;;;;5042213;28;20023;-70
2022/10/28 01:20:44;;;;;;;0.10;0.10;;;;;;;;;;5036587;28;20076;-73
2022/10/28 01:23:21;;;;;;;8.00;1.75;;;;;;;;;;5015896;28;20500;-71
2022/10/28 01:25:47;;;;;;;0.77;0.77;;;;;;;;;;5033542;28;20460;-70
2022/10/28 01:28:23;;;;;;;0.10;0.10;;;;;;;;;;5034002;28;20057;-70
2022/10/28 01:31:00;;;;;;;0.10;0.10;;;;;;;;;;5033894;28;20041;-70
2022/10/28 01:33:32;;;;;;;4.45;3.83;;;;;;;;;;5033633;28;20072;-73
2022/10/28 01:36:03;;;;;;;0.15;0.15;;;;;;;;;;5033588;28;20492;-72
2022/10/28 01:38:33;;;;;;;0.10;0.10;;;;;;;;;;5032649;28;20032;-71
2022/10/28 01:41:08;;;;;;;0.35;0.35;;;;;;;;;;5033637;28;20049;-71
2022/10/28 01:43:39;;;;;;;4.85;1.40;;;;;;;;;;5033742;28;20037;-71
2022/10/28 01:46:13;;;;;;;31.15;9.93;;;;;;;;;;5033456;28;20037;-70
2022/10/28 01:48:53;;;;;;;0.32;0.32;;;;;;;;;;5015550;28;20064;-71
2022/10/28 01:51:25;;;;;;;0.15;0.15;;;;;;;;;;5033404;28;20036;-71
2022/10/28 01:53:52;;;;;;;0.10;0.10;;;;;;;;;;5032309;28;20037;-72
2022/10/28 01:56:22;;;;;;;0.10;0.10;;;;;;;;;;5032150;28;20060;-71
2022/10/28 01:58:48;;;;;;;0.10;0.10;;;;;;;;;;5033267;28;20064;-71
2022/10/28 02:01:14;;;;;;;2.05;1.45;;;;;;;;;;5033132;28;20028;-71
2022/10/28 02:03:40;;;;;;;0.10;0.10;;;;;;;;;;5033225;28;20025;-71
2022/10/28 02:06:10;;;;;;;0.10;0.10;;;;;;;;;;5033589;28;20354;-72
2022/10/28 02:08:45;;;;;;;0.10;0.10;;;;;;;;;;5033099;28;20485;-71
2022/10/28 02:11:29;;;;;;;0.20;0.20;;;;;;;;;;5033123;28;20060;-71
2022/10/28 02:14:12;;;;;;;0.40;0.40;;;;;;;;;;5033351;28;20026;-71
2022/10/28 02:16:50;;;;;;;1.27;1.27;;;;;;;;;;5033455;28;20084;-71
2022/10/28 02:19:22;;;;;;;1.75;1.65;;;;;;;;;;5033069;28;20032;-71
2022/10/28 02:21:55;;;;;;;0.35;0.35;;;;;;;;;;5033065;28;20045;-71
2022/10/28 02:24:37;;;;;;;0.10;0.10;;;;;;;;;;5033031;28;20033;-73
2022/10/28 02:27:26;;;;;;;1.45;1.35;;;;;;;;;;5032915;28;20392;-72
2022/10/28 02:30:05;;;;;;;0.38;0.38;;;;;;;;;;5022418;28;20049;-73
2022/10/28 02:32:31;;;;;;;;;;;;;;;;;;5033286;28;20043;-73
2022/10/28 02:34:57;;;;;;;0.10;0.10;;;;;;;;;;5033175;28;19909;-73
2022/10/28 02:37:26;;;;;;;1.05;1.05;;;;;;;;;;5015275;28;20307;-73
2022/10/28 02:39:54;;;;;;;0.20;0.20;;;;;;;;;;5035679;28;20108;-73
2022/10/28 02:42:22;;;;;;;0.50;0.50;;;;;;;;;;5036660;28;20508;-72
2022/10/28 02:44:50;;;;;;;0.10;0.10;;;;;;;;;;5019134;28;20404;-73
2022/10/28 02:47:18;;;;;;;1.08;1.08;;;;;;;;;;5036678;28;20033;-73
2022/10/28 02:49:44;;;;;;;0.15;0.15;;;;;;;;;;5036600;28;20125;-73
2022/10/28 02:52:10;;;;;;;0.20;0.20;;;;;;;;;;5036561;28;20544;-71
2022/10/28 02:54:35;;;;;;;0.10;0.10;;;;;;;;;;5036647;28;20109;-71
2022/10/28 02:57:03;;;;;;;0.50;0.50;;;;;;;;;;5036867;28;20414;-71
2022/10/28 02:59:29;;;;;;;0.22;0.22;;;;;;;;;;5018644;28;20449;-71
2022/10/28 03:01:54;;;;;;;0.10;0.10;;;;;;;;;;5035334;28;20069;-72
2022/10/28 03:04:20;;;;;;;0.10;0.10;;;;;;;;;;5030183;28;20563;-71
2022/10/28 03:06:46;;;;;;;0.10;0.10;;;;;;;;;;5032477;28;20034;-72
2022/10/28 03:09:11;;;;;;;1.15;1.05;;;;;;;;;;5031114;28;20037;-72
2022/10/28 03:11:36;;;;;;;0.20;0.20;;;;;;;;;;5015005;28;20483;-72
2022/10/28 03:14:02;;;;;;;0.30;0.30;;;;;;;;;;5032845;28;20596;-71
2022/10/28 03:16:28;;;;;;;0.20;0.20;;;;;;;;;;5031885;28;20033;-72
2022/10/28 03:18:53;;;;;;;0.22;0.22;;;;;;;;;;5032259;28;20025;-72
2022/10/28 03:21:19;;;;;;;0.73;0.73;;;;;;;;;;5032681;28;20021;-72
2022/10/28 03:23:44;;;;;;;0.30;0.30;;;;;;;;;;5031958;28;20499;-72
2022/10/28 03:26:10;;;;;;;0.45;0.35;;;;;;;;;;5032360;28;20037;-72
2022/10/28 03:28:35;;;;;;;1.67;1.58;;;;;;;;;;5031804;28;20469;-72
2022/10/28 03:31:01;;;;;;;0.15;0.15;;;;;;;;;;5014264;28;20067;-73
2022/10/28 03:33:26;;;;;;;0.40;0.40;;;;;;;;;;5015042;28;20350;-73
2022/10/28 03:35:52;;;;;;;14.70;13.70;;;;;;;;;;5014324;28;20029;-74
2022/10/28 03:38:17;;;;;;;0.35;0.35;;;;;;;;;;5031964;28;20075;-73
2022/10/28 03:40:42;;;;;;;0.10;0.10;;;;;;;;;;5014635;28;20091;-73
2022/10/28 03:43:08;;;;;;;0.80;0.80;;;;;;;;;;5031758;28;20405;-73
2022/10/28 03:45:33;;;;;;;0.10;0.10;;;;;;;;;;5031324;28;20481;-73
2022/10/28 03:47:59;;;;;;;0.10;0.10;;;;;;;;;;5031790;28;20041;-73
2022/10/28 03:50:24;;;;;;;0.20;0.20;;;;;;;;;;5030313;28;20033;-72
2022/10/28 03:52:50;;;;;;;0.57;0.57;;;;;;;;;;5031651;28;20041;-73
2022/10/28 03:55:15;;;;;;;0.10;0.10;;;;;;;;;;5014182;28;20029;-73
2022/10/28 03:57:41;;;;;;;0.15;0.15;;;;;;;;;;5031553;28;20071;-73
2022/10/28 04:00:07;;;;;;;0.10;0.10;;;;;;;;;;5031609;28;20381;-73
2022/10/28 04:02:41;;;;;;;8.18;7.32;;;;;;;;;;5015231;28;20028;-72
2022/10/28 04:05:07;;;;;;;7.22;5.57;;;;;;;;;;5014448;28;20037;-73
2022/10/28 04:07:32;;;;;;;0.30;0.30;;;;;;;;;;5031373;28;20025;-73
2022/10/28 04:09:58;;;;;;;1.02;0.98;;;;;;;;;;4997120;28;20481;-73
2022/10/28 04:12:23;;;;;;;0.22;0.22;;;;;;;;;;5030966;28;20037;-73
2022/10/28 04:14:48;;;;;;;0.13;0.13;;;;;;;;;;5013902;28;20080;-73
2022/10/28 04:17:14;;;;;;;2.42;2.22;;;;;;;;;;5031001;28;20476;-73
2022/10/28 04:19:39;;;;;;;0.10;0.10;;;;;;;;;;5031117;28;20261;-73
2022/10/28 04:22:05;;;;;;;0.10;0.10;;;;;;;;;;5031463;28;20108;-73
2022/10/28 04:24:30;;;;;;;1.58;1.48;;;;;;;;;;5029382;28;20048;-73
2022/10/28 04:26:56;;;;;;;0.28;0.28;;;;;;;;;;4996278;28;20040;-73
2022/10/28 04:29:21;;;;;;;0.10;0.10;;;;;;;;;;5011202;28;20477;-73
2022/10/28 04:31:47;;;;;;;2.55;2.40;;;;;;;;;;5010900;28;20084;-74
2022/10/28 04:34:12;;;;;;;0.10;0.10;;;;;;;;;;4993341;28;20026;-74
2022/10/28 04:36:37;;;;;;;2.72;2.55;;;;;;;;;;4993296;28;20040;-75
2022/10/28 04:39:03;;;;;;;1.75;1.65;;;;;;;;;;5010991;28;20144;-76
2022/10/28 04:41:28;;;;;;;0.63;0.63;;;;;;;;;;5011030;28;20056;-74
2022/10/28 04:43:55;;;;;;;0.10;0.10;;;;;;;;;;5011076;28;20026;-75
2022/10/28 04:46:21;;;;;;;0.10;0.10;;;;;;;;;;4976586;28;20041;-73
2022/10/28 04:48:47;;;;;;;1.08;0.98;;;;;;;;;;5010714;28;20386;-73
2022/10/28 04:51:12;;;;;;;0.10;0.10;;;;;;;;;;4993708;28;20109;-74
2022/10/28 04:53:38;;;;;;;0.10;0.10;;;;;;;;;;5011074;28;20030;-73
2022/10/28 04:56:03;;;;;;;1.65;1.55;;;;;;;;;;5010664;28;20045;-73
2022/10/28 04:58:29;;;;;;;0.30;0.30;;;;;;;;;;4993303;28;20030;-73
2022/10/28 05:00:54;;;;;;;0.10;0.10;;;;;;;;;;5010612;28;20026;-73
2022/10/28 05:03:20;;;;;;;5.20;4.75;;;;;;;;;;5010105;28;20041;-73
2022/10/28 05:05:46;;;;;;;0.10;0.10;;;;;;;;;;4992907;28;20030;-72
2022/10/28 05:08:11;;;;;;;0.10;0.10;;;;;;;;;;5010149;28;20037;-71
2022/10/28 05:10:37;;;;;;;0.77;0.77;;;;;;;;;;4992999;28;20042;-73
2022/10/28 05:13:02;;;;;;;0.10;0.10;;;;;;;;;;4992832;28;20044;-72
2022/10/28 05:15:30;;;;;;;3.22;3.10;;;;;;;;;;4992642;28;20385;-72
2022/10/28 05:17:55;;;;;;;0.10;0.10;;;;;;;;;;5010661;28;20454;-72
2022/10/28 05:20:21;;;;;;;0.20;0.20;;;;;;;;;;4992068;28;20064;-72
2022/10/28 05:22:47;;;;;;;0.10;0.10;;;;;;;;;;4976658;28;20026;-73
2022/10/28 05:25:13;;;;;;;0.10;0.10;;;;;;;;;;4992528;28;20025;-72
2022/10/28 05:27:39;;;;;;;0.15;0.15;;;;;;;;;;5009899;28;20025;-73
2022/10/28 05:30:05;;;;;;;0.10;0.10;;;;;;;;;;5009757;28;20069;-72
2022/10/28 05:32:30;;;;;;;0.73;0.73;;;;;;;;;;5007570;28;20042;-73
2022/10/28 05:34:56;;;;;;;0.20;0.20;;;;;;;;;;5008010;28;20389;-73
2022/10/28 05:37:21;;;;;;;1.50;1.40;;;;;;;;;;5008290;28;20037;-73
2022/10/28 05:39:47;;;;;;;4.45;4.13;;;;;;;;;;5007991;28;20033;-72
2022/10/28 05:42:12;;;;;;;12.20;5.57;;;;;;;;;;5007788;28;20129;-74
2022/10/28 05:44:38;;;;;;;0.10;0.10;;;;;;;;;;5007579;28;20088;-72
2022/10/28 05:47:03;;;;;;;0.30;0.30;;;;;;;;;;5005938;28;20484;-73
2022/10/28 05:49:28;;;;;;;0.10;0.10;;;;;;;;;;5003060;28;20132;-72
2022/10/28 05:51:54;;;;;;;0.10;0.10;;;;;;;;;;4987823;28;20057;-72
2022/10/28 05:54:20;;;;;;;1.27;1.27;;;;;;;;;;4988192;28;20097;-72
2022/10/28 05:56:45;;;;;;;7.03;1.75;;;;;;;;;;5004842;28;20038;-73
2022/10/28 05:59:10;;;;;;;0.10;0.10;;;;;;;;;;5005015;28;20428;-74
2022/10/28 06:01:36;;;;;;;0.10;0.10;;;;;;;;;;5005229;28;20461;-73
2022/10/28 06:04:02;;;;;;;0.35;0.35;;;;;;;;;;5025953;28;20025;-72
2022/10/28 06:06:27;;;;;;;0.28;0.28;;;;;;;;;;5028041;28;20033;-73
2022/10/28 06:08:53;;;;;;;2.30;2.20;;;;;;;;;;5027193;28;20709;-73
2022/10/28 06:11:18;;;;;;;0.10;0.10;;;;;;;;;;5027063;28;20072;-73
2022/10/28 06:13:44;;;;;;;2.55;2.45;;;;;;;;;;5026641;28;20026;-72
2022/10/28 06:16:09;;;;;;;0.38;0.38;;;;;;;;;;5009629;28;20083;-73
2022/10/28 06:18:34;;;;;;;0.20;0.20;;;;;;;;;;5027244;28;20409;-73
2022/10/28 06:21:00;;;;;;;0.57;0.57;;;;;;;;;;5018724;28;20045;-71
2022/10/28 06:23:27;;;;;;;0.28;0.28;;;;;;;;;;5035622;28;20026;-75
2022/10/28 06:25:59;;;;;;;0.10;0.10;;;;;;;;;;5001528;28;20030;-73
2022/10/28 06:28:25;;;;;;;0.10;0.10;;;;;;;;;;5020163;28;20034;-73
2022/10/28 06:30:51;;;;;;;0.17;0.17;;;;;;;;;;4989424;28;20042;-73
2022/10/28 06:33:17;;;;;;;0.10;0.10;;;;;;;;;;5007153;28;20116;-72
2022/10/28 06:35:42;;;;;;;0.10;0.10;;;;;;;;;;5007339;28;20034;-71
2022/10/28 06:38:08;;;;;;;0.68;0.68;;;;;;;;;;5007287;28;20034;-72
2022/10/28 06:40:33;;;;;;;3.60;3.40;;;;;;;;;;5006493;28;20041;-73
2022/10/28 06:43:00;;;;;;;0.10;0.10;;;;;;;;;;5007199;28;20061;-72
2022/10/28 06:45:26;;;;;;;0.35;0.35;;;;;;;;;;5006360;28;20029;-73
2022/10/28 06:47:57;;;;;;;0.28;0.28;;;;;;;;;;5006979;28;20037;-72
2022/10/28 06:50:23;;;;;;;0.20;0.20;;;;;;;;;;4989208;28;20041;-73
2022/10/28 06:52:48;;;;;;;0.90;0.88;;;;;;;;;;4989516;28;20022;-72
2022/10/28 06:55:14;;;;;;;4.15;3.95;;;;;;;;;;5007036;28;20053;-73
2022/10/28 06:57:39;;;;;;;0.20;0.20;;;;;;;;;;5006553;28;20063;-73
2022/10/28 07:00:05;;;;;;;0.70;0.70;;;;;;;;;;5006602;28;20034;-73
2022/10/28 07:02:31;;;;;;;0.17;0.17;;;;;;;;;;5006584;28;20025;-72
2022/10/28 07:04:56;;;;;;;0.77;0.77;;;;;;;;;;5006365;28;20370;-73
2022/10/28 07:07:21;;;;;;;0.30;0.30;;;;;;;;;;5006975;28;20476;-73
2022/10/28 07:09:47;;;;;;;1.00;1.00;;;;;;;;;;5006443;28;20038;-73
2022/10/28 07:12:12;;;;;;;0.40;0.40;;;;;;;;;;5007016;28;20096;-73
2022/10/28 07:14:38;;;;;;;0.20;0.20;;;;;;;;;;5006688;28;20161;-73
2022/10/28 07:17:03;;;;;;;28.58;5.43;;;;;;;;;;5006869;28;20033;-73
2022/10/28 07:19:29;;;;;;;0.20;0.20;;;;;;;;;;5024709;28;20029;-72
2022/10/28 07:21:54;;;;;;;0.10;0.10;;;;;;;;;;5025896;28;20030;-72
2022/10/28 07:24:20;;;;;;;0.10;0.10;;;;;;;;;;5026329;28;20075;-73
2022/10/28 07:26:48;;;;;;;0.20;0.20;;;;;;;;;;5030096;28;20026;-72
2022/10/28 07:29:14;;;;;;;0.38;0.38;;;;;;;;;;5030053;28;20034;-74
2022/10/28 07:31:40;;;;;;;2.28;2.17;;;;;;;;;;5029704;28;20025;-72
2022/10/28 07:34:05;;;;;;;0.30;0.30;;;;;;;;;;4995050;28;20029;-73
2022/10/28 07:36:31;;;;;;;0.88;0.82;;;;;;;;;;5029575;28;20067;-73
2022/10/28 07:38:56;;;;;;;0.20;0.20;;;;;;;;;;5029759;28;20032;-72
2022/10/28 07:41:22;;;;;;;0.10;0.10;;;;;;;;;;5029508;28;20083;-74
2022/10/28 07:43:47;;;;;;;0.30;0.30;;;;;;;;;;5029622;28;20037;-73
2022/10/28 07:46:13;;;;;;;0.20;0.20;;;;;;;;;;5011545;28;20037;-73
2022/10/28 07:48:39;;;;;;;0.20;0.20;;;;;;;;;;5028962;28;20094;-73
2022/10/28 07:51:05;;;;;;;1.15;0.68;;;;;;;;;;5029369;28;20472;-70
2022/10/28 07:53:31;;;;;;;0.20;0.20;;;;;;;;;;5028988;28;20095;-73
2022/10/28 07:55:59;;;;;;;0.20;0.20;;;;;;;;;;5011267;28;20072;-72
2022/10/28 07:58:25;;;;;;;2.05;1.95;;;;;;;;;;5028376;28;20034;-71
2022/10/28 08:00:51;;;;;;;0.40;0.40;;;;;;;;;;5029180;28;20443;-71
2022/10/28 08:03:16;;;;;;;5.10;4.80;;;;;;;;;;5029461;28;20025;-71
2022/10/28 08:05:42;;;;;;;0.38;0.38;;;;;;;;;;5028959;28;20023;-73
2022/10/28 08:08:07;;;;;;;0.40;0.40;;;;;;;;;;5028951;28;20029;-72
2022/10/28 08:10:33;;;;;;;0.10;0.10;;;;;;;;;;5028581;28;20040;-72
2022/10/28 08:12:59;;;;;;;0.20;0.20;;;;;;;;;;5028933;28;20029;-72
2022/10/28 08:15:25;;;;;;;17.58;11.30;;;;;;;;;;5028444;28;20120;-72
2022/10/28 08:17:51;;;;;;;0.32;0.32;;;;;;;;;;5027731;28;20116;-72
2022/10/28 08:20:16;;;;;;;0.20;0.20;;;;;;;;;;5029009;28;20087;-71
2022/10/28 08:22:42;;;;;;;0.20;0.20;;;;;;;;;;5028490;28;20018;-73
2022/10/28 08:25:07;;;;;;;0.30;0.30;;;;;;;;;;5028916;28;20034;-71
2022/10/28 08:27:33;;;;;;;0.20;0.20;;;;;;;;;;5028631;28;20075;-73
2022/10/28 08:29:58;;;;;;;0.20;0.20;;;;;;;;;;5029022;28;20022;-72
2022/10/28 08:32:24;;;;;;;0.20;0.20;;;;;;;;;;5028064;28;20034;-72
2022/10/28 08:34:49;;;;;;;0.10;0.10;;;;;;;;;;5028405;28;20057;-74
2022/10/28 08:37:15;;;;;;;0.95;0.95;;;;;;;;;;5028190;28;20075;-72
2022/10/28 08:39:40;;;;;;;0.40;0.40;;;;;;;;;;5028494;28;20576;-72
2022/10/28 08:42:17;;;;;;;0.20;0.20;;;;;;;;;;5028347;28;20132;-72
2022/10/28 08:44:55;;;;;;;0.20;0.20;;;;;;;;;;5028278;28;20029;-73
2022/10/28 08:47:39;;;;;;;0.20;0.20;;;;;;;;;;5010381;28;20152;-73
2022/10/28 08:50:11;;;;;;;0.20;0.20;;;;;;;;;;5027932;28;20046;-72
2022/10/28 08:52:49;;;;;;;0.20;0.20;;;;;;;;;;5010179;28;20049;-73
2022/10/28 08:55:30;;;;;;;0.20;0.20;;;;;;;;;;5010323;28;20400;-72
2022/10/28 08:57:57;;;;;;;0.22;0.22;;;;;;;;;;5028010;28;20033;-72
2022/10/28 09:00:25;;;;;;;0.20;0.20;;;;;;;;;;5010140;28;20380;-71
2022/10/28 09:02:56;;;;;;;0.75;0.75;;;;;;;;;;5028311;28;20030;-73
2022/10/28 09:05:23;;;;;;;0.20;0.20;;;;;;;;;;5027727;28;20032;-73
2022/10/28 09:07:49;;;;;;;0.10;0.10;;;;;;;;;;5010304;28;20136;-71
2022/10/28 09:10:15;;;;;;;0.17;0.17;;;;;;;;;;5027861;28;20128;-72
2022/10/28 09:12:50;;;;;;;0.20;0.20;;;;;;;;;;5027506;28;20037;-72
2022/10/28 09:15:24;;;;;;;0.13;0.13;;;;;;;;;;5027454;28;20021;-72
2022/10/28 09:17:53;;;;;;;0.20;0.20;;;;;;;;;;5027467;28;20243;-71
2022/10/28 09:20:27;;;;;;;0.20;0.20;;;;;;;;;;5027251;28;20033;-72
2022/10/28 09:23:05;;;;;;;4.68;3.20;;;;;;;;;;5027011;28;20033;-69
2022/10/28 09:26:06;;;;;;;1.85;0.52;;;;;;;;;;5027413;28;20040;-67
2022/10/28 09:28:50;;;;;;;1.10;0.88;;;;;;;;;;4965420;28;20434;-68
2022/10/28 09:31:34;;;;;;;0.40;0.40;;;;;;;;;;5022186;28;20073;-69
2022/10/28 09:34:03;;;;;;;0.20;0.20;;;;;;;;;;5009581;28;20516;-69
2022/10/28 09:36:35;;;;;;;0.20;0.20;;;;;;;;;;5026924;28;20037;-70
2022/10/28 09:39:02;;;;;;;0.20;0.20;;;;;;;;;;5027011;28;20787;-69
2022/10/28 09:41:37;;;;;;;0.20;0.20;;;;;;;;;;5026957;28;20084;-69
2022/10/28 09:44:07;;;;;;;0.20;0.20;;;;;;;;;;5026982;28;20080;-69
2022/10/28 09:46:33;;;;;;;0.30;0.30;;;;;;;;;;5026434;28;20484;-69
2022/10/28 09:49:02;;;;;;;2.40;1.42;;;;;;;;;;5026631;28;20055;-70
2022/10/28 09:51:27;;;;;;;0.40;0.40;;;;;;;;;;5027722;28;20041;-69
2022/10/28 09:53:57;;;;;;;0.52;0.52;;;;;;;;;;5011274;28;20362;-70
2022/10/28 09:56:23;;;;;;;0.28;0.28;;;;;;;;;;5010882;28;20477;-69
2022/10/28 09:58:49;;;;;;;0.20;0.20;;;;;;;;;;5029082;28;20044;-70
2022/10/28 10:01:16;;;;;;;2.30;1.95;;;;;;;;;;5028905;28;20025;-70
2022/10/28 10:03:44;;;;;;;0.20;0.20;;;;;;;;;;5029103;28;20477;-69
2022/10/28 10:06:15;;;;;;;0.50;0.50;;;;;;;;;;5028727;28;20025;-69
2022/10/28 10:08:41;;;;;;;1.00;0.73;;;;;;;;;;5028482;28;20050;-69
2022/10/28 10:11:30;;;;;;;0.20;0.20;;;;;;;;;;5010959;28;20120;-69
2022/10/28 10:13:56;;;;;;;2.92;0.82;;;;;;;;;;5018295;28;20045;-68
2022/10/28 10:16:41;;;;;;;0.30;0.30;;;;;;;;;;5028743;28;20535;-68
2022/10/28 10:19:07;;;;;;;0.52;0.52;;;;;;;;;;5027626;28;20160;-68
2022/10/28 10:21:41;;;;;;;0.20;0.20;;;;;;;;;;5028791;28;20033;-70
2022/10/28 10:24:22;;;;;;;0.70;0.57;;;;;;;;;;5029040;28;20034;-69
2022/10/28 10:26:48;;;;;;;0.20;0.20;;;;;;;;;;5028808;28;20036;-68
2022/10/28 10:29:13;;;;;;;0.28;0.28;;;;;;;;;;5027955;28;20045;-68
2022/10/28 10:31:39;;;;;;;2.38;1.75;;;;;;;;;;5028946;28;20025;-68
2022/10/28 10:34:04;;;;;;;0.30;0.30;;;;;;;;;;5028933;28;20025;-68
2022/10/28 10:36:30;;;;;;;0.47;0.43;;;;;;;;;;5028549;28;20060;-68
2022/10/28 10:38:56;;;;;;;0.50;0.50;;;;;;;;;;5028435;28;20120;-69
2022/10/28 10:41:31;;;;;;;1.75;1.35;;;;;;;;;;5028308;28;20022;-69
2022/10/28 10:43:57;;;;;;;0.73;0.73;;;;;;;;;;5028631;28;20459;-69
2022/10/28 10:46:22;;;;;;;1.17;1.10;;;;;;;;;;5028717;28;20100;-69
2022/10/28 10:49:04;;;;;;;8.98;2.05;;;;;;;;;;5028527;28;20057;-70
2022/10/28 10:51:30;;;;;;;0.52;0.35;;;;;;;;;;5028480;28;20116;-69
2022/10/28 10:53:59;;;;;;;4.18;1.45;;;;;;;;;;5028436;28;20108;-69
2022/10/28 10:56:24;;;;;;;;;;;;;;;;;;5028534;28;20396;-69
2022/10/28 10:58:51;;;;;;;0.30;0.30;;;;;;;;;;5011267;28;19913;-69
2022/10/28 11:01:23;;;;;;;4.03;1.85;;;;;;;;;;5031809;28;20608;-70
2022/10/28 11:03:54;;;;;;;0.90;0.85;;;;;;;;;;5015117;28;20099;-69
2022/10/28 11:06:21;;;;;;;3.42;1.67;;;;;;;;;;5032164;28;20036;-69
2022/10/28 11:08:47;;;;;;;0.40;0.40;;;;;;;;;;5032130;28;20096;-69
2022/10/28 11:11:17;;;;;;;1.85;1.33;;;;;;;;;;5032404;28;20427;-70
2022/10/28 11:13:43;;;;;;;0.28;0.28;;;;;;;;;;5018256;28;20053;-69
2022/10/28 11:16:18;;;;;;;1.48;1.38;;;;;;;;;;5016695;28;20461;-70
2022/10/28 11:18:45;;;;;;;2.55;1.50;;;;;;;;;;5019734;28;20489;-69
2022/10/28 11:21:13;;;;;;;3.40;1.38;;;;;;;;;;5018835;28;20555;-70
2022/10/28 11:23:48;;;;;;;0.53;0.53;;;;;;;;;;4995035;28;20030;-69
2022/10/28 11:26:14;;;;;;;1.35;0.88;;;;;;;;;;5012302;28;20837;-68
2022/10/28 11:28:40;;;;;;;0.82;0.82;;;;;;;;;;5012377;28;20034;-68
2022/10/28 11:31:11;;;;;;;0.52;0.52;;;;;;;;;;5012607;28;20034;-70
2022/10/28 11:33:55;;;;;;;0.20;0.20;;;;;;;;;;5012061;28;20470;-69
2022/10/28 11:36:37;;;;;;;2.17;1.20;;;;;;;;;;4994430;28;20381;-68
2022/10/28 11:39:14;;;;;;;1.35;0.90;;;;;;;;;;5011674;28;20068;-69
2022/10/28 11:41:48;;;;;;;0.43;0.43;;;;;;;;;;5011821;28;20053;-68
2022/10/28 11:44:21;;;;;;;3.15;2.90;;;;;;;;;;4994321;28;20026;-68
2022/10/28 11:46:46;;;;;;;0.45;0.40;;;;;;;;;;5011960;28;20038;-70
2022/10/28 11:49:20;;;;;;;2.60;0.65;;;;;;;;;;5015581;28;20017;-69
2022/10/28 11:51:53;;;;;;;0.50;0.50;;;;;;;;;;5017279;28;20036;-68
2022/10/28 11:54:43;;;;;;;0.82;0.65;;;;;;;;;;5026547;28;20430;-69
2022/10/28 11:57:16;;;;;;;5.05;0.77;;;;;;;;;;5018838;28;20030;-68
2022/10/28 11:59:50;;;;;;;7.53;2.60;;;;;;;;;;5018655;28;20030;-69
2022/10/28 12:02:35;;;;;;;3.13;0.70;;;;;;;;;;5011206;28;20396;-69
2022/10/28 12:05:08;;;;;;;1.55;1.30;;;;;;;;;;5011643;28;20581;-68
2022/10/28 12:07:33;;;;;;;0.80;0.60;;;;;;;;;;4993516;28;20082;-68
2022/10/28 12:10:11;;;;;;;0.45;0.45;;;;;;;;;;5011161;28;20509;-68
2022/10/28 12:12:51;;;;;;;8.45;2.28;;;;;;;;;;4993000;28;20872;-68
2022/10/28 12:15:35;;;;;;;3.50;0.75;;;;;;;;;;5011342;28;20095;-70
2022/10/28 12:18:07;;;;;;;0.70;0.70;;;;;;;;;;5011222;28;20030;-69
2022/10/28 12:20:36;;;;;;;2.88;1.23;;;;;;;;;;5011284;28;20022;-69
2022/10/28 12:23:04;;;;;;;11.43;5.37;;;;;;;;;;5007206;28;20022;-69
2022/10/28 12:25:32;;;;;;;1.45;0.70;;;;;;;;;;5011446;28;20268;-68
2022/10/28 12:27:59;;;;;;;7.70;1.58;;;;;;;;;;5010819;28;20037;-68
2022/10/28 12:30:33;;;;;;;2.20;1.00;;;;;;;;;;5010261;28;20038;-69
2022/10/28 12:33:18;;;;;;;3.45;1.70;;;;;;;;;;4993626;28;20065;-69
2022/10/28 12:35:50;;;;;;;0.85;0.82;;;;;;;;;;5010781;28;20827;-69
2022/10/28 12:38:27;;;;;;;15.40;8.65;;;;;;;;;;5010716;28;20032;-68
2022/10/28 12:41:10;;;;;;;5.90;1.60;;;;;;;;;;5010483;28;20053;-68
2022/10/28 12:43:49;;;;;;;2.72;1.17;;;;;;;;;;5011161;28;20115;-70
2022/10/28 12:46:14;;;;;;;;;;;;;;;;;;5011024;28;20088;-67
2022/10/28 12:48:44;;;;;;;0.30;0.30;;;;;;;;;;4993243;28;20398;-72
2022/10/28 12:51:13;;;;;;;5.63;3.30;;;;;;;;;;5010848;28;20441;-73
2022/10/28 12:53:40;;;;;;;0.20;0.20;;;;;;;;;;5010879;28;20033;-73
2022/10/28 12:56:09;;;;;;;0.88;0.80;;;;;;;;;;5010754;28;20029;-73
2022/10/28 12:58:35;;;;;;;;;;;;;;;;;;5010431;28;20033;-73
2022/10/28 13:01:07;;;;;;;0.33;0.33;;;;;;;;;;5010249;28;19920;-74
2022/10/28 13:03:32;;;;;;;2.13;1.27;;;;;;;;;;5010035;28;20121;-74
2022/10/28 13:06:08;;;;;;;0.20;0.20;;;;;;;;;;5010431;28;20116;-72
2022/10/28 13:08:42;;;;;;;0.30;0.25;;;;;;;;;;5009196;28;20096;-73
2022/10/28 13:11:11;;;;;;;1.65;0.57;;;;;;;;;;5010891;28;20029;-72
2022/10/28 13:13:39;;;;;;;1.88;0.70;;;;;;;;;;5010432;28;20038;-72
2022/10/28 13:16:28;;;;;;;2.67;0.40;;;;;;;;;;5010109;28;20022;-73
2022/10/28 13:19:12;;;;;;;4.00;1.30;;;;;;;;;;4987308;28;20045;-72
2022/10/28 13:21:52;;;;;;;0.35;0.35;;;;;;;;;;5009843;28;20091;-72
2022/10/28 13:24:24;;;;;;;13.18;9.93;;;;;;;;;;5009617;28;20030;-72
2022/10/28 13:26:50;;;;;;;4.35;1.92;;;;;;;;;;5010006;28;20552;-72
2022/10/28 13:29:23;;;;;;;0.20;0.20;;;;;;;;;;4992379;28;20132;-72
2022/10/28 13:31:49;;;;;;;16.65;0.95;;;;;;;;;;5009570;28;20485;-73
2022/10/28 13:34:16;;;;;;;2.50;0.85;;;;;;;;;;5010461;28;20473;-73
2022/10/28 13:36:43;;;;;;;0.30;0.30;;;;;;;;;;5009527;28;20120;-72
2022/10/28 13:39:20;;;;;;;0.52;0.40;;;;;;;;;;4991937;28;20044;-72
2022/10/28 13:41:46;;;;;;;0.20;0.20;;;;;;;;;;5009801;28;20508;-72
2022/10/28 13:44:13;;;;;;;0.20;0.20;;;;;;;;;;5010107;28;20037;-73
2022/10/28 13:46:57;;;;;;;0.40;0.40;;;;;;;;;;5009465;28;20030;-72
2022/10/28 13:49:23;;;;;;;6.90;3.60;;;;;;;;;;5009425;28;20038;-74
2022/10/28 13:51:50;;;;;;;1.85;1.75;;;;;;;;;;5009747;28;20034;-72
2022/10/28 13:54:38;;;;;;;1.55;1.33;;;;;;;;;;5009583;28;20454;-72
2022/10/28 13:57:24;;;;;;;4.75;4.45;;;;;;;;;;5003883;28;20137;-73
2022/10/28 13:59:54;;;;;;;0.20;0.20;;;;;;;;;;5002530;28;20085;-72
2022/10/28 14:02:27;;;;;;;0.30;0.30;;;;;;;;;;5009075;28;20478;-73
2022/10/28 14:04:59;;;;;;;0.20;0.20;;;;;;;;;;5009539;28;20029;-72
2022/10/28 14:07:27;;;;;;;4.05;3.65;;;;;;;;;;5009665;28;20030;-72
2022/10/28 14:09:57;;;;;;;0.30;0.30;;;;;;;;;;4992027;28;20052;-72
2022/10/28 14:12:22;;;;;;;0.30;0.30;;;;;;;;;;5009446;28;20099;-72
2022/10/28 14:14:53;;;;;;;0.52;0.52;;;;;;;;;;5008895;28;20033;-72
2022/10/28 14:17:20;;;;;;;0.30;0.20;;;;;;;;;;5009655;28;20429;-73
2022/10/28 14:19:50;;;;;;;0.30;0.30;;;;;;;;;;5009201;28;20030;-73
2022/10/28 14:22:36;;;;;;;0.50;0.50;;;;;;;;;;5009337;28;20033;-73
2022/10/28 14:25:21;;;;;;;1.25;0.65;;;;;;;;;;5009124;28;20502;-73
2022/10/28 14:27:47;;;;;;;1.13;0.88;;;;;;;;;;4991801;28;20042;-73
2022/10/28 14:30:17;;;;;;;0.40;0.40;;;;;;;;;;5009400;28;20579;-73
2022/10/28 14:32:48;;;;;;;0.30;0.30;;;;;;;;;;5009439;28;20654;-73
2022/10/28 14:35:14;;;;;;;0.20;0.20;;;;;;;;;;5011073;28;20049;-73
2022/10/28 14:37:39;;;;;;;0.20;0.20;;;;;;;;;;5012962;28;20068;-72
2022/10/28 14:40:12;;;;;;;2.35;0.75;;;;;;;;;;5012708;28;20084;-73
2022/10/28 14:43:07;;;;;;;3.30;1.58;;;;;;;;;;4996579;28;20050;-73
2022/10/28 14:45:33;;;;;;;0.38;0.38;;;;;;;;;;5008188;28;20408;-73
2022/10/28 14:48:04;;;;;;;0.47;0.47;;;;;;;;;;5012890;28;20026;-72
2022/10/28 14:50:32;;;;;;;0.40;0.40;;;;;;;;;;5010978;28;20133;-73
2022/10/28 14:52:59;;;;;;;0.33;0.33;;;;;;;;;;5012979;28;20028;-72
2022/10/28 14:55:26;;;;;;;1.92;0.88;;;;;;;;;;5013031;28;20307;-73